Kinoura — 3FHE5 — position and weather

sailwx.info

Track history (hours):
 
Tides and Currents Weather Stations Pressure Air Temp Water Temp Dewpoint Dewpoint Depression Visibility Wind Speed Wind Dir Waves Ship Positions

Kinoura

Last reported at 2014-Nov-24 07:34 UTC. Time now 2014-Nov-24 08:08 UTC.
Position N 48°37' W 125°30'.

Length 227 m; draft 13.1 m.

Type: Cargo ship. MMSI: 373041000.

Date/timePositionNaut miles runAvg speedWind from/ knotsBaromVisibWave heightAir tempDewpointWater temp
2014-Nov-24 07:34N 48°37' W 125°30'9 8.6
2014-Nov-24 06:33N 48°33' W 125°18'9 8.8
2014-Nov-24 05:33N 48°31' W 125°05'9 8.7
2014-Nov-24 04:33N 48°31' W 124°52'9 9.2
2014-Nov-24 03:34N 48°29' W 124°39'1010.4
2014-Nov-24 02:33N 48°25' W 124°24'1111.0
2014-Nov-24 01:33N 48°21' W 124°09'1110.9
2014-Nov-24 00:33N 48°17' W 123°53'10 9.8
2014-Nov-23 23:33N 48°16' W 123°39'9 9.2
2014-Nov-23 22:34N 48°13' W 123°26'8 7.8
2014-Nov-23 21:34N 48°10' W 123°15'1111.0
2014-Nov-23 20:33N 48°12' W 122°58'1211.4
2014-Nov-23 19:30N 48°08' W 122°41'1313.3
2014-Nov-23 18:34N 47°57' W 122°33'1312.6
2014-Nov-23 17:34N 47°45' W 122°26'8 8.4
2014-Nov-23 16:33N 47°37' W 122°22'0 0.1
2014-Nov-23 15:33N 47°37' W 122°22'0 0.0
2014-Nov-23 14:30N 47°37' W 122°22'0 0.0
2014-Nov-23 13:33N 47°37' W 122°22'0 0.0
2014-Nov-23 12:33N 47°37' W 122°22'0 0.0
2014-Nov-23 11:30N 47°37' W 122°22'0 0.0
2014-Nov-23 10:33N 47°37' W 122°22'0 0.0
2014-Nov-23 09:33N 47°37' W 122°22'0 0.0
2014-Nov-23 08:33N 47°37' W 122°22'0 0.0
2014-Nov-23 07:33N 47°37' W 122°22'0 0.0
2014-Nov-23 06:27N 47°37' W 122°22'0 0.0
2014-Nov-23 05:30N 47°37' W 122°22'0 0.0
2014-Nov-23 04:30N 47°37' W 122°22'0 0.0
2014-Nov-23 03:30N 47°37' W 122°22'0 0.0
2014-Nov-23 02:33N 47°37' W 122°22'0 0.0
2014-Nov-23 01:33N 47°37' W 122°22'0 0.0
2014-Nov-23 00:33N 47°37' W 122°22'0 0.0
2014-Nov-22 23:33N 47°37' W 122°22'0 0.0
2014-Nov-22 22:33N 47°37' W 122°22'0 0.0
2014-Nov-22 21:33N 47°37' W 122°22'0 0.0
2014-Nov-22 20:33N 47°37' W 122°22'0 0.0
2014-Nov-22 19:33N 47°37' W 122°22'0 0.0
2014-Nov-22 18:21N 47°37' W 122°22'0 0.0
2014-Nov-22 17:24N 47°37' W 122°22'0 0.0
2014-Nov-22 16:30N 47°37' W 122°22'0 0.0
2014-Nov-22 15:33N 47°37' W 122°22'0 0.0
2014-Nov-22 14:33N 47°37' W 122°22'0 0.0
2014-Nov-22 13:27N 47°37' W 122°22'0 0.0
2014-Nov-22 11:33N 47°37' W 122°22'0 0.0
2014-Nov-22 10:30N 47°37' W 122°22'0 0.0
2014-Nov-22 09:30N 47°37' W 122°22'0 0.0
2014-Nov-22 08:33N 47°37' W 122°22'0 0.0
2014-Nov-22 07:33N 47°37' W 122°22'0 0.0
2014-Nov-22 06:30N 47°37' W 122°22'0 0.0
2014-Nov-22 05:27N 47°37' W 122°22'0 0.0
2014-Nov-22 04:33N 47°37' W 122°22'0 0.0
2014-Nov-22 02:33N 47°37' W 122°22'0 0.0
2014-Nov-22 01:33N 47°37' W 122°22'0 0.0
2014-Nov-22 00:30N 47°37' W 122°22'0 0.0
2014-Nov-21 23:33N 47°37' W 122°22'0 0.0
2014-Nov-21 22:33N 47°37' W 122°22'0 0.0
2014-Nov-21 21:33N 47°37' W 122°22'0 0.0
2014-Nov-21 20:33N 47°37' W 122°22'0 0.0
2014-Nov-21 19:33N 47°37' W 122°22'0 0.0
2014-Nov-21 18:33N 47°37' W 122°22'0 0.0
2014-Nov-21 17:33N 47°37' W 122°22'0 0.0
2014-Nov-21 16:33N 47°37' W 122°22'0 0.0
2014-Nov-21 15:33N 47°37' W 122°22'0 0.0
2014-Nov-21 14:33N 47°37' W 122°22'0 0.0
2014-Nov-21 13:33N 47°37' W 122°22'0 0.0
2014-Nov-21 12:33N 47°37' W 122°22'0 0.0
2014-Nov-21 11:33N 47°37' W 122°22'0 0.0
2014-Nov-21 10:30N 47°37' W 122°22'0 0.0
2014-Nov-21 09:33N 47°37' W 122°22'0 0.0
2014-Nov-21 08:33N 47°37' W 122°22'0 0.0
2014-Nov-21 07:33N 47°37' W 122°22'0 0.0
2014-Nov-21 06:30N 47°37' W 122°22'0 0.0
2014-Nov-21 05:33N 47°37' W 122°22'0 0.0
2014-Nov-21 04:33N 47°37' W 122°22'0 0.0
2014-Nov-21 03:33N 47°37' W 122°22'0 0.0
2014-Nov-21 02:33N 47°37' W 122°22'0 0.0
2014-Nov-21 01:33N 47°37' W 122°22'0 0.0
2014-Nov-21 00:33N 47°37' W 122°22'0 0.0
2014-Nov-20 23:33N 47°37' W 122°22'0 0.0
2014-Nov-20 22:33N 47°37' W 122°22'0 0.0
2014-Nov-20 21:33N 47°37' W 122°22'0 0.0
2014-Nov-20 20:33N 47°37' W 122°22'0 0.0
2014-Nov-20 19:33N 47°37' W 122°22'0 0.0
2014-Nov-20 18:30N 47°37' W 122°22'0 0.0
2014-Nov-20 17:33N 47°37' W 122°22'0 0.0
2014-Nov-20 16:33N 47°37' W 122°22'0 0.0
2014-Nov-20 15:33N 47°37' W 122°22'0 0.0
2014-Nov-20 14:33N 47°37' W 122°22'0 0.0
2014-Nov-20 13:33N 47°37' W 122°22'0 0.0
2014-Nov-20 12:30N 47°37' W 122°22'0 0.0
2014-Nov-20 11:30N 47°37' W 122°22'0 0.0
2014-Nov-20 10:30N 47°37' W 122°22'0 0.0
2014-Nov-20 09:30N 47°37' W 122°22'0 0.0
2014-Nov-20 08:33N 47°37' W 122°22'0 0.0
2014-Nov-20 07:33N 47°37' W 122°22'0 0.0
2014-Nov-20 06:30N 47°37' W 122°22'0 0.0
2014-Nov-20 05:33N 47°37' W 122°22'0 0.0
2014-Nov-20 04:33N 47°37' W 122°22'0 0.0
2014-Nov-20 03:33N 47°37' W 122°22'0 0.0
2014-Nov-20 02:33N 47°37' W 122°22'0 0.0
2014-Nov-20 01:30N 47°37' W 122°22'0 0.0
2014-Nov-20 00:33N 47°37' W 122°22'0 0.0
2014-Nov-19 23:33N 47°37' W 122°22'0 0.0
2014-Nov-19 22:33N 47°37' W 122°22'0 0.0
2014-Nov-19 21:33N 47°37' W 122°22'0 0.0
2014-Nov-19 20:33N 47°37' W 122°22'0 0.0
2014-Nov-19 19:33N 47°37' W 122°22'0 0.0
2014-Nov-19 18:33N 47°37' W 122°22'0 0.0
2014-Nov-19 17:03N 47°37' W 122°22'0 0.0
2014-Nov-19 16:33N 47°37' W 122°22'0 0.0
2014-Nov-19 15:33N 47°37' W 122°22'0 0.0
2014-Nov-19 14:27N 47°37' W 122°22'0 0.0
2014-Nov-19 13:33N 47°37' W 122°22'0 0.0
2014-Nov-19 12:33N 47°37' W 122°22'0 0.0
2014-Nov-19 11:33N 47°37' W 122°22'0 0.0
2014-Nov-19 10:30N 47°37' W 122°22'0 0.0
2014-Nov-19 09:30N 47°37' W 122°22'0 0.0
2014-Nov-19 08:27N 47°37' W 122°22'0 0.0
2014-Nov-19 07:33N 47°37' W 122°22'0 0.0
2014-Nov-19 06:33N 47°37' W 122°22'0 0.0
2014-Nov-19 05:33N 47°37' W 122°22'0 0.0
2014-Nov-19 04:30N 47°37' W 122°22'0 0.0
2014-Nov-19 03:33N 47°37' W 122°22'0 0.0
2014-Nov-19 02:33N 47°37' W 122°22'0 0.0
2014-Nov-19 01:27N 47°37' W 122°22'0 0.0
2014-Nov-19 00:27N 47°37' W 122°22'0 0.0
2014-Nov-18 23:33N 47°37' W 122°22'0 0.0
2014-Nov-18 22:33N 47°37' W 122°22'0 0.0
2014-Nov-18 21:33N 47°37' W 122°22'0 0.0
2014-Nov-18 20:30N 47°37' W 122°22'0 0.0
2014-Nov-18 19:33N 47°37' W 122°22'0 0.0
2014-Nov-18 18:33N 47°37' W 122°22'0 0.0
2014-Nov-18 17:30N 47°37' W 122°22'0 0.0
2014-Nov-18 16:33N 47°37' W 122°22'0 0.0
2014-Nov-18 15:33N 47°37' W 122°22'0 0.0
2014-Nov-18 14:27N 47°37' W 122°22'0 0.0
2014-Nov-18 13:33N 47°37' W 122°22'0 0.0
2014-Nov-18 12:33N 47°37' W 122°22'0 0.0
2014-Nov-18 11:33N 47°37' W 122°22'0 0.0
2014-Nov-18 10:33N 47°37' W 122°22'0 0.0
2014-Nov-18 09:33N 47°37' W 122°22'2 1.5
2014-Nov-18 08:33N 47°37' W 122°24'0 0.1
2014-Nov-18 07:28N 47°38' W 122°24'0 0.1
2014-Nov-18 06:31N 47°37' W 122°24'0 0.0
2014-Nov-18 05:31N 47°38' W 122°24'0 0.0
2014-Nov-18 04:28N 47°37' W 122°24'0 0.0
2014-Nov-18 03:31N 47°38' W 122°24'0 0.0
2014-Nov-18 02:31N 47°37' W 122°24'0 0.0
2014-Nov-18 01:31N 47°37' W 122°24'0 0.0
2014-Nov-18 00:31N 47°37' W 122°24'0 0.1
2014-Nov-17 23:28N 47°37' W 122°24'0 0.1
2014-Nov-17 22:31N 47°37' W 122°24'0 0.1
2014-Nov-17 21:31N 47°37' W 122°24'0 0.0
2014-Nov-17 20:28N 47°37' W 122°24'0 0.1
2014-Nov-17 19:28N 47°37' W 122°24'0 0.1
2014-Nov-17 18:31N 47°38' W 122°24'0 0.0
2014-Nov-17 17:31N 47°37' W 122°24'0 0.0
2014-Nov-17 16:28N 47°38' W 122°24'0 0.1
2014-Nov-17 15:31N 47°37' W 122°25'0 0.0
2014-Nov-17 14:31N 47°37' W 122°24'0 0.1
2014-Nov-17 13:31N 47°37' W 122°24'0 0.1
2014-Nov-17 12:31N 47°37' W 122°24'0 0.0
2014-Nov-17 11:31N 47°37' W 122°24'0 0.0
2014-Nov-17 10:31N 47°37' W 122°24'0 0.0
2014-Nov-17 09:28N 47°37' W 122°24'0 0.0
2014-Nov-17 08:31N 47°37' W 122°24'0 0.2
2014-Nov-17 07:31N 47°37' W 122°24'0 0.0
2014-Nov-17 06:31N 47°37' W 122°24'0 0.0
2014-Nov-17 05:31N 47°37' W 122°24'0 0.0
2014-Nov-17 04:31N 47°37' W 122°24'0 0.0
2014-Nov-17 03:31N 47°37' W 122°24'0 0.0
2014-Nov-17 02:10N 47°37' W 122°24'0 0.0
2014-Nov-17 01:31N 47°37' W 122°24'0 0.0
2014-Nov-17 00:31N 47°37' W 122°24'0 0.0
2014-Nov-16 23:31N 47°37' W 122°24'0 0.0
2014-Nov-16 22:31N 47°37' W 122°24'0 0.0
2014-Nov-16 21:25N 47°37' W 122°24'0 0.0
2014-Nov-16 20:31N 47°37' W 122°24'0 0.0
2014-Nov-16 19:28N 47°37' W 122°24'0 0.0
2014-Nov-16 18:31N 47°37' W 122°24'0 0.0
2014-Nov-16 17:31N 47°37' W 122°24'0 0.0
2014-Nov-16 16:31N 47°37' W 122°24'0 0.1
2014-Nov-16 15:31N 47°37' W 122°24'0 0.1
2014-Nov-16 14:31N 47°37' W 122°24'0 0.1
2014-Nov-16 13:31N 47°37' W 122°24'0 0.1
2014-Nov-16 12:31N 47°37' W 122°24'0 0.1
2014-Nov-16 11:31N 47°37' W 122°24'2 1.6
2014-Nov-16 10:33N 47°38' W 122°27'1312.6
2014-Nov-16 09:33N 47°51' W 122°28'1212.4
2014-Nov-16 08:33N 48°01' W 122°38'1212.3
2014-Nov-16 07:33N 48°11' W 122°50'1313.3
2014-Nov-16 06:32N 48°11' W 123°10'1111.5
2014-Nov-16 05:33N 48°11' W 123°27'1211.6
2014-Nov-16 04:32N 48°13' W 123°44'1211.3
2014-Nov-16 03:30N 48°15' W 124°02'1111.8
2014-Nov-16 02:33N 48°20' W 124°17'1211.6
2014-Nov-16 01:33N 48°25' W 124°32'1110.6
2014-Nov-16 00:33N 48°29' W 124°47'1111.0
2014-Nov-15 23:33N 48°29' W 125°04'1010.3
2014-Nov-15 22:32N 48°28' W 125°20'1010.2
2014-Nov-15 21:32N 48°25' W 125°35'10 9.8
2014-Nov-15 20:32N 48°23' W 125°49'1110.7
2014-Nov-15 19:32N 48°21' W 126°05'  
Track history (hours):
 
Tides and Currents Weather Stations Pressure Air Temp Water Temp Dewpoint Dewpoint Depression Visibility Wind Speed Wind Dir Waves Ship Positions

Kinoura

Last reported at 2014-Nov-24 07:34 UTC. Time now 2014-Nov-24 08:08 UTC.
Position N 48°37' W 125°30'.

Length 227 m; draft 13.1 m.

Type: Cargo ship. MMSI: 373041000.

Date/timePositionNaut miles runAvg speedWind from/ knotsBaromVisibWave heightAir tempDewpointWater temp
2014-Nov-24 07:34N 48°37' W 125°30'9 8.6
2014-Nov-24 06:33N 48°33' W 125°18'9 8.8
2014-Nov-24 05:33N 48°31' W 125°05'9 8.7
2014-Nov-24 04:33N 48°31' W 124°52'9 9.2
2014-Nov-24 03:34N 48°29' W 124°39'1010.4
2014-Nov-24 02:33N 48°25' W 124°24'1111.0
2014-Nov-24 01:33N 48°21' W 124°09'1110.9
2014-Nov-24 00:33N 48°17' W 123°53'10 9.8
2014-Nov-23 23:33N 48°16' W 123°39'9 9.2
2014-Nov-23 22:34N 48°13' W 123°26'8 7.8
2014-Nov-23 21:34N 48°10' W 123°15'1111.0
2014-Nov-23 20:33N 48°12' W 122°58'1211.4
2014-Nov-23 19:30N 48°08' W 122°41'1313.3
2014-Nov-23 18:34N 47°57' W 122°33'1312.6
2014-Nov-23 17:34N 47°45' W 122°26'8 8.4
2014-Nov-23 16:33N 47°37' W 122°22'0 0.1
2014-Nov-23 15:33N 47°37' W 122°22'0 0.0
2014-Nov-23 14:30N 47°37' W 122°22'0 0.0
2014-Nov-23 13:33N 47°37' W 122°22'0 0.0
2014-Nov-23 12:33N 47°37' W 122°22'0 0.0
2014-Nov-23 11:30N 47°37' W 122°22'0 0.0
2014-Nov-23 10:33N 47°37' W 122°22'0 0.0
2014-Nov-23 09:33N 47°37' W 122°22'0 0.0
2014-Nov-23 08:33N 47°37' W 122°22'0 0.0
2014-Nov-23 07:33N 47°37' W 122°22'0 0.0
2014-Nov-23 06:27N 47°37' W 122°22'0 0.0
2014-Nov-23 05:30N 47°37' W 122°22'0 0.0
2014-Nov-23 04:30N 47°37' W 122°22'0 0.0
2014-Nov-23 03:30N 47°37' W 122°22'0 0.0
2014-Nov-23 02:33N 47°37' W 122°22'0 0.0
2014-Nov-23 01:33N 47°37' W 122°22'0 0.0
2014-Nov-23 00:33N 47°37' W 122°22'0 0.0
2014-Nov-22 23:33N 47°37' W 122°22'0 0.0
2014-Nov-22 22:33N 47°37' W 122°22'0 0.0
2014-Nov-22 21:33N 47°37' W 122°22'0 0.0
2014-Nov-22 20:33N 47°37' W 122°22'0 0.0
2014-Nov-22 19:33N 47°37' W 122°22'0 0.0
2014-Nov-22 18:21N 47°37' W 122°22'0 0.0
2014-Nov-22 17:24N 47°37' W 122°22'0 0.0
2014-Nov-22 16:30N 47°37' W 122°22'0 0.0
2014-Nov-22 15:33N 47°37' W 122°22'0 0.0
2014-Nov-22 14:33N 47°37' W 122°22'0 0.0
2014-Nov-22 13:27N 47°37' W 122°22'0 0.0
2014-Nov-22 11:33N 47°37' W 122°22'0 0.0
2014-Nov-22 10:30N 47°37' W 122°22'0 0.0
2014-Nov-22 09:30N 47°37' W 122°22'0 0.0
2014-Nov-22 08:33N 47°37' W 122°22'0 0.0
2014-Nov-22 07:33N 47°37' W 122°22'0 0.0
2014-Nov-22 06:30N 47°37' W 122°22'0 0.0
2014-Nov-22 05:27N 47°37' W 122°22'0 0.0
2014-Nov-22 04:33N 47°37' W 122°22'0 0.0
2014-Nov-22 02:33N 47°37' W 122°22'0 0.0
2014-Nov-22 01:33N 47°37' W 122°22'0 0.0
2014-Nov-22 00:30N 47°37' W 122°22'0 0.0
2014-Nov-21 23:33N 47°37' W 122°22'0 0.0
2014-Nov-21 22:33N 47°37' W 122°22'0 0.0
2014-Nov-21 21:33N 47°37' W 122°22'0 0.0
2014-Nov-21 20:33N 47°37' W 122°22'0 0.0
2014-Nov-21 19:33N 47°37' W 122°22'0 0.0
2014-Nov-21 18:33N 47°37' W 122°22'0 0.0
2014-Nov-21 17:33N 47°37' W 122°22'0 0.0
2014-Nov-21 16:33N 47°37' W 122°22'0 0.0
2014-Nov-21 15:33N 47°37' W 122°22'0 0.0
2014-Nov-21 14:33N 47°37' W 122°22'0 0.0
2014-Nov-21 13:33N 47°37' W 122°22'0 0.0
2014-Nov-21 12:33N 47°37' W 122°22'0 0.0
2014-Nov-21 11:33N 47°37' W 122°22'0 0.0
2014-Nov-21 10:30N 47°37' W 122°22'0 0.0
2014-Nov-21 09:33N 47°37' W 122°22'0 0.0
2014-Nov-21 08:33N 47°37' W 122°22'0 0.0
2014-Nov-21 07:33N 47°37' W 122°22'0 0.0
2014-Nov-21 06:30N 47°37' W 122°22'0 0.0
2014-Nov-21 05:33N 47°37' W 122°22'0 0.0
2014-Nov-21 04:33N 47°37' W 122°22'0 0.0
2014-Nov-21 03:33N 47°37' W 122°22'0 0.0
2014-Nov-21 02:33N 47°37' W 122°22'0 0.0
2014-Nov-21 01:33N 47°37' W 122°22'0 0.0
2014-Nov-21 00:33N 47°37' W 122°22'0 0.0
2014-Nov-20 23:33N 47°37' W 122°22'0 0.0
2014-Nov-20 22:33N 47°37' W 122°22'0 0.0
2014-Nov-20 21:33N 47°37' W 122°22'0 0.0
2014-Nov-20 20:33N 47°37' W 122°22'0 0.0
2014-Nov-20 19:33N 47°37' W 122°22'0 0.0
2014-Nov-20 18:30N 47°37' W 122°22'0 0.0
2014-Nov-20 17:33N 47°37' W 122°22'0 0.0
2014-Nov-20 16:33N 47°37' W 122°22'0 0.0
2014-Nov-20 15:33N 47°37' W 122°22'0 0.0
2014-Nov-20 14:33N 47°37' W 122°22'0 0.0
2014-Nov-20 13:33N 47°37' W 122°22'0 0.0
2014-Nov-20 12:30N 47°37' W 122°22'0 0.0
2014-Nov-20 11:30N 47°37' W 122°22'0 0.0
2014-Nov-20 10:30N 47°37' W 122°22'0 0.0
2014-Nov-20 09:30N 47°37' W 122°22'0 0.0
2014-Nov-20 08:33N 47°37' W 122°22'0 0.0
2014-Nov-20 07:33N 47°37' W 122°22'0 0.0
2014-Nov-20 06:30N 47°37' W 122°22'0 0.0
2014-Nov-20 05:33N 47°37' W 122°22'0 0.0
2014-Nov-20 04:33N 47°37' W 122°22'0 0.0
2014-Nov-20 03:33N 47°37' W 122°22'0 0.0
2014-Nov-20 02:33N 47°37' W 122°22'0 0.0
2014-Nov-20 01:30N 47°37' W 122°22'0 0.0
2014-Nov-20 00:33N 47°37' W 122°22'0 0.0
2014-Nov-19 23:33N 47°37' W 122°22'0 0.0
2014-Nov-19 22:33N 47°37' W 122°22'0 0.0
2014-Nov-19 21:33N 47°37' W 122°22'0 0.0
2014-Nov-19 20:33N 47°37' W 122°22'0 0.0
2014-Nov-19 19:33N 47°37' W 122°22'0 0.0
2014-Nov-19 18:33N 47°37' W 122°22'0 0.0
2014-Nov-19 17:03N 47°37' W 122°22'0 0.0
2014-Nov-19 16:33N 47°37' W 122°22'0 0.0
2014-Nov-19 15:33N 47°37' W 122°22'0 0.0
2014-Nov-19 14:27N 47°37' W 122°22'0 0.0
2014-Nov-19 13:33N 47°37' W 122°22'0 0.0
2014-Nov-19 12:33N 47°37' W 122°22'0 0.0
2014-Nov-19 11:33N 47°37' W 122°22'0 0.0
2014-Nov-19 10:30N 47°37' W 122°22'0 0.0
2014-Nov-19 09:30N 47°37' W 122°22'0 0.0
2014-Nov-19 08:27N 47°37' W 122°22'0 0.0
2014-Nov-19 07:33N 47°37' W 122°22'0 0.0
2014-Nov-19 06:33N 47°37' W 122°22'0 0.0
2014-Nov-19 05:33N 47°37' W 122°22'0 0.0
2014-Nov-19 04:30N 47°37' W 122°22'0 0.0
2014-Nov-19 03:33N 47°37' W 122°22'0 0.0
2014-Nov-19 02:33N 47°37' W 122°22'0 0.0
2014-Nov-19 01:27N 47°37' W 122°22'0 0.0
2014-Nov-19 00:27N 47°37' W 122°22'0 0.0
2014-Nov-18 23:33N 47°37' W 122°22'0 0.0
2014-Nov-18 22:33N 47°37' W 122°22'0 0.0
2014-Nov-18 21:33N 47°37' W 122°22'0 0.0
2014-Nov-18 20:30N 47°37' W 122°22'0 0.0
2014-Nov-18 19:33N 47°37' W 122°22'0 0.0
2014-Nov-18 18:33N 47°37' W 122°22'0 0.0
2014-Nov-18 17:30N 47°37' W 122°22'0 0.0
2014-Nov-18 16:33N 47°37' W 122°22'0 0.0
2014-Nov-18 15:33N 47°37' W 122°22'0 0.0
2014-Nov-18 14:27N 47°37' W 122°22'0 0.0
2014-Nov-18 13:33N 47°37' W 122°22'0 0.0
2014-Nov-18 12:33N 47°37' W 122°22'0 0.0
2014-Nov-18 11:33N 47°37' W 122°22'0 0.0
2014-Nov-18 10:33N 47°37' W 122°22'0 0.0
2014-Nov-18 09:33N 47°37' W 122°22'2 1.5
2014-Nov-18 08:33N 47°37' W 122°24'0 0.1
2014-Nov-18 07:28N 47°38' W 122°24'0 0.1
2014-Nov-18 06:31N 47°37' W 122°24'0 0.0
2014-Nov-18 05:31N 47°38' W 122°24'0 0.0
2014-Nov-18 04:28N 47°37' W 122°24'0 0.0
2014-Nov-18 03:31N 47°38' W 122°24'0 0.0
2014-Nov-18 02:31N 47°37' W 122°24'0 0.0
2014-Nov-18 01:31N 47°37' W 122°24'0 0.0
2014-Nov-18 00:31N 47°37' W 122°24'0 0.1
2014-Nov-17 23:28N 47°37' W 122°24'0 0.1
2014-Nov-17 22:31N 47°37' W 122°24'0 0.1
2014-Nov-17 21:31N 47°37' W 122°24'0 0.0
2014-Nov-17 20:28N 47°37' W 122°24'0 0.1
2014-Nov-17 19:28N 47°37' W 122°24'0 0.1
2014-Nov-17 18:31N 47°38' W 122°24'0 0.0
2014-Nov-17 17:31N 47°37' W 122°24'0 0.0
2014-Nov-17 16:28N 47°38' W 122°24'0 0.1
2014-Nov-17 15:31N 47°37' W 122°25'0 0.0
2014-Nov-17 14:31N 47°37' W 122°24'0 0.1
2014-Nov-17 13:31N 47°37' W 122°24'0 0.1
2014-Nov-17 12:31N 47°37' W 122°24'0 0.0
2014-Nov-17 11:31N 47°37' W 122°24'0 0.0
2014-Nov-17 10:31N 47°37' W 122°24'0 0.0
2014-Nov-17 09:28N 47°37' W 122°24'0 0.0
2014-Nov-17 08:31N 47°37' W 122°24'0 0.2
2014-Nov-17 07:31N 47°37' W 122°24'0 0.0
2014-Nov-17 06:31N 47°37' W 122°24'0 0.0
2014-Nov-17 05:31N 47°37' W 122°24'0 0.0
2014-Nov-17 04:31N 47°37' W 122°24'0 0.0
2014-Nov-17 03:31N 47°37' W 122°24'0 0.0
2014-Nov-17 02:10N 47°37' W 122°24'0 0.0
2014-Nov-17 01:31N 47°37' W 122°24'0 0.0
2014-Nov-17 00:31N 47°37' W 122°24'0 0.0
2014-Nov-16 23:31N 47°37' W 122°24'0 0.0
2014-Nov-16 22:31N 47°37' W 122°24'0 0.0
2014-Nov-16 21:25N 47°37' W 122°24'0 0.0
2014-Nov-16 20:31N 47°37' W 122°24'0 0.0
2014-Nov-16 19:28N 47°37' W 122°24'0 0.0
2014-Nov-16 18:31N 47°37' W 122°24'0 0.0
2014-Nov-16 17:31N 47°37' W 122°24'0 0.0
2014-Nov-16 16:31N 47°37' W 122°24'0 0.1
2014-Nov-16 15:31N 47°37' W 122°24'0 0.1
2014-Nov-16 14:31N 47°37' W 122°24'0 0.1
2014-Nov-16 13:31N 47°37' W 122°24'0 0.1
2014-Nov-16 12:31N 47°37' W 122°24'0 0.1
2014-Nov-16 11:31N 47°37' W 122°24'2 1.6
2014-Nov-16 10:33N 47°38' W 122°27'1312.6
2014-Nov-16 09:33N 47°51' W 122°28'1212.4
2014-Nov-16 08:33N 48°01' W 122°38'1212.3
2014-Nov-16 07:33N 48°11' W 122°50'1313.3
2014-Nov-16 06:32N 48°11' W 123°10'1111.5
2014-Nov-16 05:33N 48°11' W 123°27'1211.6
2014-Nov-16 04:32N 48°13' W 123°44'1211.3
2014-Nov-16 03:30N 48°15' W 124°02'1111.8
2014-Nov-16 02:33N 48°20' W 124°17'1211.6
2014-Nov-16 01:33N 48°25' W 124°32'1110.6
2014-Nov-16 00:33N 48°29' W 124°47'1111.0
2014-Nov-15 23:33N 48°29' W 125°04'1010.3
2014-Nov-15 22:32N 48°28' W 125°20'1010.2
2014-Nov-15 21:32N 48°25' W 125°35'10 9.8
2014-Nov-15 20:32N 48°23' W 125°49'1110.7
2014-Nov-15 19:32N 48°21' W 126°05'  

Dump ship's entire track history